Time;durP1;ratioP1;P1;durP2;ratioP2;P2;SDS_P1;SDS_P2;PMS_P1;PMS_P2;Temp;Humidity;BMP_temperature;BMP_pressure;BME280_temperature;BME280_humidity;BME280_pressure;Samples;Min_cycle;Max_cycle;Signal;HPM_P1;HPM_P2
2021/04/17 00:02:10;;;;;;;6.97;6.28;;;1.60;99.90;;;;;;5061558;28;20208;-72
2021/04/17 00:04:38;;;;;;;8.68;5.65;;;1.60;99.90;;;;;;5060497;28;20593;-73
2021/04/17 00:07:06;;;;;;;7.30;5.70;;;1.50;99.90;;;;;;5061910;28;20201;-73
2021/04/17 00:09:33;;;;;;;9.23;7.10;;;1.40;99.90;;;;;;5061614;28;20238;-73
2021/04/17 00:12:02;;;;;;;9.00;7.40;;;1.40;99.90;;;;;;5060836;28;20203;-72
2021/04/17 00:14:34;;;;;;;6.65;6.05;;;1.40;99.90;;;;;;5061606;28;20199;-73
2021/04/17 00:17:01;;;;;;;6.75;6.15;;;1.30;99.90;;;;;;5063559;28;20254;-72
2021/04/17 00:19:27;;;;;;;8.45;6.25;;;1.30;99.90;;;;;;5063997;28;20217;-72
2021/04/17 00:21:54;;;;;;;9.05;6.90;;;1.20;99.90;;;;;;5063531;28;20509;-73
2021/04/17 00:24:20;;;;;;;7.13;6.40;;;1.20;99.90;;;;;;5065318;28;20259;-72
2021/04/17 00:26:46;;;;;;;6.88;6.15;;;1.20;99.90;;;;;;5065580;28;20219;-72
2021/04/17 00:29:13;;;;;;;9.45;6.70;;;1.20;99.90;;;;;;5065595;28;20239;-72
2021/04/17 00:31:40;;;;;;;8.73;7.00;;;1.20;99.90;;;;;;5065274;28;20204;-72
2021/04/17 00:34:07;;;;;;;8.02;6.57;;;1.20;99.90;;;;;;5065284;28;21147;-72
2021/04/17 00:36:33;;;;;;;8.10;7.30;;;1.20;99.90;;;;;;5065043;28;20208;-72
2021/04/17 00:38:59;;;;;;;7.78;6.82;;;1.20;99.90;;;;;;5065572;28;20223;-72
2021/04/17 00:41:26;;;;;;;7.97;6.90;;;1.20;99.90;;;;;;5065281;28;20204;-72
2021/04/17 00:43:53;;;;;;;7.13;6.32;;;1.20;99.90;;;;;;5065300;28;20230;-72
2021/04/17 00:46:20;;;;;;;7.80;6.85;;;1.20;99.90;;;;;;5064764;28;20204;-72
2021/04/17 00:48:47;;;;;;;7.00;6.30;;;1.20;99.90;;;;;;5065057;28;20277;-72
2021/04/17 00:51:15;;;;;;;10.02;7.32;;;1.20;99.90;;;;;;5064732;28;20204;-72
2021/04/17 00:53:41;;;;;;;12.20;8.38;;;1.20;99.90;;;;;;5067195;28;20200;-72
2021/04/17 00:56:10;;;;;;;8.13;6.80;;;1.20;99.90;;;;;;5069071;28;20712;-72
2021/04/17 00:58:39;;;;;;;10.52;7.10;;;1.20;99.90;;;;;;5068962;28;20224;-73
2021/04/17 01:01:06;;;;;;;8.38;6.45;;;1.20;99.90;;;;;;5069275;28;20203;-72
2021/04/17 01:03:42;;;;;;;10.45;8.32;;;1.20;99.90;;;;;;5088411;22;20219;-75
2021/04/17 01:06:15;;;;;;;8.82;7.60;;;1.20;99.90;;;;;;5094866;28;20204;-76
2021/04/17 01:08:47;;;;;;;8.27;7.43;;;1.20;99.90;;;;;;5087286;28;20258;-77
2021/04/17 01:11:20;;;;;;;9.20;7.18;;;1.20;99.90;;;;;;5075246;28;20216;-77
2021/04/17 01:13:48;;;;;;;7.90;6.82;;;1.20;99.90;;;;;;5075837;28;20249;-77
2021/04/17 01:16:16;;;;;;;8.13;7.25;;;1.20;99.90;;;;;;5075638;28;20222;-77
2021/04/17 01:18:45;;;;;;;9.60;6.93;;;1.20;99.90;;;;;;5076649;28;20220;-77
2021/04/17 01:21:12;;;;;;;10.35;8.00;;;1.20;99.90;;;;;;5075542;28;20246;-76
2021/04/17 01:23:42;;;;;;;10.07;8.57;;;1.20;99.90;;;;;;5076348;28;20208;-77
2021/04/17 01:26:12;;;;;;;9.05;7.60;;;1.20;99.90;;;;;;5076449;28;20195;-77
2021/04/17 01:56:17;;;;;;;9.27;7.93;;;1.50;99.90;;;;;;5079276;28;20242;-77
2021/04/17 01:58:45;;;;;;;9.70;7.82;;;1.40;99.90;;;;;;5076394;28;20663;-76
2021/04/17 02:01:11;;;;;;;11.63;8.13;;;1.40;99.90;;;;;;5078990;28;20200;-78
2021/04/17 02:03:37;;;;;;;10.25;8.07;;;1.50;99.90;;;;;;5079011;28;20273;-76
2021/04/17 02:06:04;;;;;;;9.80;7.50;;;1.50;99.90;;;;;;5079247;28;20229;-77
2021/04/17 02:08:35;;;;;;;9.07;7.70;;;1.60;99.90;;;;;;5079103;28;20692;-78
2021/04/17 02:11:01;;;;;;;10.35;8.55;;;1.50;99.90;;;;;;5079268;28;20208;-78
2021/04/17 02:13:27;;;;;;;9.40;7.75;;;1.60;99.90;;;;;;5080307;28;20200;-77
2021/04/17 02:15:57;;;;;;;11.40;7.82;;;1.60;99.90;;;;;;5080012;28;20250;-77
2021/04/17 02:18:27;;;;;;;10.00;7.72;;;1.60;99.90;;;;;;5080349;28;20228;-76
2021/04/17 02:21:02;;;;;;;8.93;7.43;;;1.60;99.90;;;;;;5079682;28;20212;-77
2021/04/17 02:23:29;;;;;;;10.15;7.68;;;1.60;99.90;;;;;;5080250;28;20219;-77
2021/04/17 02:25:56;;;;;;;11.43;7.63;;;1.60;99.90;;;;;;5080319;28;20200;-77
2021/04/17 02:28:23;;;;;;;9.65;6.97;;;1.60;99.90;;;;;;5080397;28;20228;-77
2021/04/17 02:30:49;;;;;;;10.35;7.60;;;1.60;99.90;;;;;;5079839;28;20285;-77
2021/04/17 02:33:16;;;;;;;7.82;7.03;;;1.60;99.90;;;;;;5080851;28;20596;-77
2021/04/17 02:35:42;;;;;;;8.80;7.85;;;1.70;99.90;;;;;;5080610;28;20200;-78
2021/04/17 02:38:08;;;;;;;9.50;7.50;;;1.70;99.90;;;;;;5079557;28;20224;-77
2021/04/17 02:40:35;;;;;;;12.75;8.75;;;1.70;99.90;;;;;;5078709;28;20204;-78
2021/04/17 02:43:01;;;;;;;11.07;8.27;;;1.80;99.90;;;;;;5078064;28;20200;-77
2021/04/17 02:45:28;;;;;;;10.77;8.27;;;1.80;99.90;;;;;;5078710;28;20228;-77
2021/04/17 02:47:54;;;;;;;13.15;9.15;;;1.80;99.90;;;;;;5078938;28;20215;-77
2021/04/17 02:50:21;;;;;;;10.93;9.18;;;1.80;99.90;;;;;;5079374;28;20215;-76
2021/04/17 02:52:48;;;;;;;13.57;8.43;;;1.90;99.90;;;;;;5079052;28;20265;-77
2021/04/17 02:55:15;;;;;;;12.68;9.88;;;1.90;99.90;;;;;;5078938;28;20219;-76
2021/04/17 02:57:41;;;;;;;11.55;9.13;;;1.90;99.90;;;;;;5079280;28;20196;-76
2021/04/17 03:00:10;;;;;;;11.98;9.35;;;2.00;99.90;;;;;;5078972;28;20205;-77
2021/04/17 03:02:36;;;;;;;13.43;10.38;;;2.00;99.90;;;;;;5078292;28;20203;-77
2021/04/17 03:05:03;;;;;;;11.25;8.90;;;2.00;99.90;;;;;;5078546;28;20225;-77
2021/04/17 03:07:30;;;;;;;12.32;9.60;;;2.00;99.90;;;;;;5079061;28;20231;-77
2021/04/17 03:09:56;;;;;;;10.13;8.50;;;2.10;99.90;;;;;;5080057;28;20216;-78
2021/04/17 03:12:22;;;;;;;13.02;9.40;;;2.10;99.90;;;;;;5079150;28;20196;-77
2021/04/17 03:14:49;;;;;;;10.57;7.95;;;2.10;99.90;;;;;;5078444;28;20200;-77
2021/04/17 03:17:15;;;;;;;11.90;9.35;;;2.00;99.90;;;;;;5078541;28;20209;-77
2021/04/17 03:19:41;;;;;;;11.15;8.35;;;2.00;99.90;;;;;;5078724;28;20254;-77
2021/04/17 03:22:08;;;;;;;10.15;8.50;;;1.90;99.90;;;;;;5076899;28;20603;-77
2021/04/17 03:24:35;;;;;;;12.00;9.25;;;1.90;99.90;;;;;;5076515;28;20224;-77
2021/04/17 03:27:01;;;;;;;12.20;8.90;;;1.80;99.90;;;;;;5077083;28;20200;-77
2021/04/17 03:29:28;;;;;;;11.55;9.68;;;1.80;99.90;;;;;;5077012;28;20719;-77
2021/04/17 03:31:54;;;;;;;12.68;10.10;;;1.70;99.90;;;;;;5076971;28;20207;-77
2021/04/17 03:34:20;;;;;;;12.80;9.68;;;1.60;99.90;;;;;;5077649;28;20204;-77
2021/04/17 03:36:46;;;;;;;12.15;9.85;;;1.60;99.90;;;;;;5077640;28;20207;-77
2021/04/17 03:39:12;;;;;;;12.57;10.27;;;1.50;99.90;;;;;;5075235;28;20225;-76
2021/04/17 03:41:39;;;;;;;13.50;10.07;;;1.50;99.90;;;;;;5072452;28;20595;-77
2021/04/17 03:44:06;;;;;;;15.00;10.15;;;1.40;99.90;;;;;;5076093;28;20231;-76
2021/04/17 03:46:33;;;;;;;12.30;9.65;;;1.30;99.90;;;;;;5076994;28;20227;-76
2021/04/17 03:48:59;;;;;;;13.55;10.50;;;1.30;99.90;;;;;;5077685;28;20220;-78
2021/04/17 03:51:26;;;;;;;11.60;9.30;;;1.20;99.90;;;;;;5077091;28;20204;-76
2021/04/17 03:53:52;;;;;;;15.88;10.48;;;1.20;99.90;;;;;;5077316;28;20200;-78
2021/04/17 03:56:19;;;;;;;12.07;10.30;;;1.20;99.90;;;;;;5074292;28;20196;-77
2021/04/17 03:58:46;;;;;;;12.65;10.52;;;1.10;99.90;;;;;;5077258;28;20239;-76
2021/04/17 04:01:12;;;;;;;18.23;10.18;;;1.10;99.90;;;;;;5077385;28;20204;-77
2021/04/17 04:03:39;;;;;;;12.35;10.00;;;1.10;99.90;;;;;;5074319;28;20615;-77
2021/04/17 04:06:06;;;;;;;12.98;10.85;;;1.00;99.90;;;;;;5078694;28;20211;-77
2021/04/17 04:08:32;;;;;;;12.98;11.00;;;1.00;99.90;;;;;;5079158;28;20478;-77
2021/04/17 04:10:58;;;;;;;13.98;11.05;;;1.00;99.90;;;;;;5078162;28;20525;-78
2021/04/17 04:13:24;;;;;;;14.38;10.95;;;1.00;99.90;;;;;;5078682;28;20813;-76
2021/04/17 04:15:51;;;;;;;13.70;10.98;;;1.00;99.90;;;;;;5078945;28;20200;-76
2021/04/17 04:18:18;;;;;;;13.75;11.13;;;1.00;99.90;;;;;;5079355;28;20225;-78
2021/04/17 04:20:44;;;;;;;12.05;10.50;;;1.00;99.90;;;;;;5078267;28;20217;-77
2021/04/17 04:23:10;;;;;;;14.88;11.93;;;1.10;99.90;;;;;;5079079;28;20224;-78
2021/04/17 04:25:36;;;;;;;14.25;11.40;;;1.10;99.90;;;;;;5078608;28;20224;-77
2021/04/17 04:28:03;;;;;;;14.80;11.55;;;1.00;99.90;;;;;;5080610;28;20650;-78
2021/04/17 04:30:30;;;;;;;13.35;10.38;;;1.10;99.90;;;;;;5082226;28;20314;-77
2021/04/17 04:32:57;;;;;;;14.57;11.13;;;1.10;99.90;;;;;;5083463;28;20227;-76
2021/04/17 04:35:23;;;;;;;13.35;11.40;;;1.10;99.90;;;;;;5083593;28;20196;-77
2021/04/17 04:37:49;;;;;;;15.05;11.73;;;1.10;99.90;;;;;;5082296;28;20203;-77
2021/04/17 04:40:16;;;;;;;19.25;13.32;;;1.20;99.90;;;;;;5082419;28;20540;-78
2021/04/17 04:42:42;;;;;;;14.43;12.23;;;1.20;99.90;;;;;;5082331;28;20211;-77
2021/04/17 04:45:10;;;;;;;16.55;12.20;;;1.30;99.90;;;;;;5082123;28;20286;-78
2021/04/17 04:47:37;;;;;;;13.10;11.70;;;1.40;99.90;;;;;;5081884;28;20208;-78
2021/04/17 04:50:05;;;;;;;12.80;11.40;;;1.40;99.90;;;;;;5080746;28;20266;-77
2021/04/17 04:52:32;;;;;;;13.82;11.25;;;1.30;99.90;;;;;;5079830;28;20208;-77
2021/04/17 04:54:58;;;;;;;12.30;11.00;;;1.30;99.90;;;;;;5081011;28;20698;-77
2021/04/17 04:57:24;;;;;;;14.13;11.90;;;1.30;99.90;;;;;;5080569;28;20203;-77
2021/04/17 04:59:50;;;;;;;15.02;12.98;;;1.30;99.90;;;;;;5081204;28;20224;-78
2021/04/17 05:02:17;;;;;;;14.10;11.55;;;1.30;99.90;;;;;;5080539;28;20205;-77
2021/04/17 05:04:43;;;;;;;15.23;12.68;;;1.40;99.90;;;;;;5078920;28;20261;-76
2021/04/17 05:07:10;;;;;;;16.70;11.55;;;1.40;99.90;;;;;;5077791;28;20204;-77
2021/04/17 05:09:36;;;;;;;15.73;11.70;;;1.40;99.90;;;;;;5074316;28;20228;-76
2021/04/17 05:12:03;;;;;;;15.07;12.27;;;1.40;99.90;;;;;;5073380;28;20208;-77
2021/04/17 05:14:30;;;;;;;13.77;11.18;;;1.40;99.90;;;;;;5073415;28;20219;-76
2021/04/17 05:16:56;;;;;;;14.07;12.48;;;1.50;99.90;;;;;;5073579;28;20208;-76
2021/04/17 05:19:22;;;;;;;14.55;11.05;;;1.60;99.90;;;;;;5073433;28;20220;-76
2021/04/17 05:21:48;;;;;;;15.80;12.65;;;1.60;99.90;;;;;;5072812;28;20205;-76
2021/04/17 05:24:15;;;;;;;14.70;11.52;;;1.60;99.90;;;;;;5073274;28;20220;-76
2021/04/17 05:26:42;;;;;;;18.77;12.57;;;1.70;99.90;;;;;;5073128;28;20211;-76
2021/04/17 05:29:08;;;;;;;15.00;12.50;;;1.80;99.90;;;;;;5073312;28;20231;-76
2021/04/17 05:31:35;;;;;;;17.13;12.05;;;1.90;99.90;;;;;;5072206;28;20568;-76
2021/04/17 05:34:01;;;;;;;17.55;12.05;;;2.00;99.90;;;;;;5073142;28;20266;-76
2021/04/17 05:36:28;;;;;;;16.67;12.27;;;2.10;99.90;;;;;;5073380;28;20208;-77
2021/04/17 05:38:54;;;;;;;15.07;12.23;;;2.20;99.90;;;;;;5072998;28;20262;-76
2021/04/17 05:41:21;;;;;;;15.68;12.50;;;2.30;99.90;;;;;;5072318;28;20698;-76
2021/04/17 05:43:47;;;;;;;13.65;12.02;;;2.40;99.90;;;;;;5073400;28;20220;-76
2021/04/17 05:46:14;;;;;;;14.88;12.75;;;2.40;99.90;;;;;;5073959;28;20205;-75
2021/04/17 05:48:40;;;;;;;16.70;12.13;;;2.50;99.90;;;;;;5073706;28;20443;-75
2021/04/17 05:51:06;;;;;;;14.75;12.85;;;2.60;99.90;;;;;;5073518;28;20201;-77
2021/04/17 05:53:32;;;;;;;19.60;12.43;;;2.70;99.90;;;;;;5072922;28;20200;-75
2021/04/17 05:55:59;;;;;;;16.55;12.82;;;2.90;99.90;;;;;;5073796;28;20270;-75
2021/04/17 05:58:26;;;;;;;18.75;13.75;;;3.00;99.90;;;;;;5073633;28;20224;-76
2021/04/17 06:00:52;;;;;;;13.15;11.75;;;3.10;99.90;;;;;;5073318;28;20214;-77
2021/04/17 06:03:18;;;;;;;14.05;11.50;;;3.20;99.90;;;;;;5073428;28;20675;-76
2021/04/17 06:05:45;;;;;;;16.50;12.90;;;3.40;99.90;;;;;;5073604;28;20229;-76
2021/04/17 06:08:11;;;;;;;18.00;12.48;;;3.50;99.90;;;;;;5073951;28;20636;-77
2021/04/17 06:10:37;;;;;;;14.88;11.40;;;3.70;99.90;;;;;;5072972;28;20632;-77
2021/04/17 06:13:03;;;;;;;15.18;12.73;;;3.80;99.90;;;;;;5073796;28;20208;-76
2021/04/17 06:15:30;;;;;;;14.77;12.00;;;3.90;99.90;;;;;;5072944;28;20204;-77
2021/04/17 06:17:57;;;;;;;14.38;11.38;;;4.00;99.90;;;;;;5072137;28;20667;-76
2021/04/17 06:20:23;;;;;;;13.25;11.85;;;4.10;99.90;;;;;;5071791;28;20216;-74
2021/04/17 06:22:49;;;;;;;14.90;12.50;;;4.20;99.90;;;;;;5072066;28;20201;-76
2021/04/17 06:25:16;;;;;;;14.30;12.35;;;4.30;99.90;;;;;;5071712;28;20247;-76
2021/04/17 06:27:42;;;;;;;13.27;10.57;;;4.30;99.90;;;;;;5071939;28;20223;-76
2021/04/17 06:30:09;;;;;;;13.13;11.82;;;4.40;99.90;;;;;;5071453;28;20227;-75
2021/04/17 06:32:36;;;;;;;14.88;11.75;;;4.50;99.90;;;;;;5071454;28;20211;-76
2021/04/17 06:35:03;;;;;;;11.95;10.35;;;4.60;99.90;;;;;;5071308;28;20207;-76
2021/04/17 06:37:29;;;;;;;15.43;12.00;;;4.70;99.90;;;;;;5070995;28;20201;-76
2021/04/17 06:39:55;;;;;;;14.85;11.90;;;4.80;99.90;;;;;;5070817;28;20223;-76
2021/04/17 06:42:26;;;;;;;13.65;11.30;;;5.00;99.90;;;;;;5070514;28;20201;-76
2021/04/17 06:44:53;;;;;;;15.10;11.70;;;5.10;99.90;;;;;;5071698;28;20229;-76
2021/04/17 06:47:20;;;;;;;14.90;12.43;;;5.20;99.90;;;;;;5071535;28;20205;-76
2021/04/17 06:49:48;;;;;;;14.50;12.07;;;5.40;99.90;;;;;;5070555;28;20250;-75
2021/04/17 06:52:15;;;;;;;17.77;11.82;;;5.60;99.90;;;;;;5069418;28;20200;-74
2021/04/17 06:54:43;;;;;;;13.43;11.20;;;5.80;99.90;;;;;;5069676;28;20193;-74
2021/04/17 06:57:09;;;;;;;13.38;11.63;;;6.00;99.90;;;;;;5070431;28;20200;-74
2021/04/17 06:59:35;;;;;;;13.80;11.15;;;6.10;99.90;;;;;;5070105;28;20228;-75
2021/04/17 07:02:02;;;;;;;13.80;12.40;;;6.30;99.90;;;;;;5069817;28;20738;-74
2021/04/17 07:04:29;;;;;;;14.75;11.77;;;6.40;99.90;;;;;;5231907;22;20246;-71
2021/04/17 07:06:56;;;;;;;14.45;11.40;;;6.60;99.90;;;;;;5071596;28;20236;-72
2021/04/17 07:09:23;;;;;;;13.15;11.63;;;6.60;99.90;;;;;;5084918;28;20227;-71
2021/04/17 07:11:49;;;;;;;17.35;12.35;;;6.70;99.90;;;;;;5091761;28;20290;-72
2021/04/17 07:14:17;;;;;;;13.60;11.38;;;6.80;99.90;;;;;;5091032;28;20206;-71
2021/04/17 07:16:57;;;;;;;12.98;11.60;;;6.90;99.90;;;;;;5090845;28;20204;-71
2021/04/17 07:19:25;;;;;;;13.15;11.25;;;6.90;99.90;;;;;;5090115;28;20266;-71
2021/04/17 07:21:51;;;;;;;13.07;11.13;;;6.90;99.90;;;;;;5090145;28;20206;-70
2021/04/17 07:24:26;;;;;;;13.98;11.40;;;6.90;99.90;;;;;;5090150;28;20567;-70
2021/04/17 07:26:53;;;;;;;12.35;11.05;;;7.00;99.90;;;;;;5090313;28;20701;-69
2021/04/17 07:29:19;;;;;;;15.00;11.57;;;7.10;99.90;;;;;;5089858;28;20706;-69
2021/04/17 07:31:53;;;;;;;13.55;10.50;;;7.20;99.90;;;;;;5089917;28;20204;-69
2021/04/17 07:34:21;;;;;;;12.40;11.13;;;7.40;99.90;;;;;;5090109;28;20195;-70
2021/04/17 07:36:52;;;;;;;13.65;11.60;;;7.40;99.90;;;;;;5090148;28;20206;-69
2021/04/17 07:39:36;;;;;;;14.10;11.80;;;7.60;99.90;;;;;;5089860;28;20310;-68
2021/04/17 07:42:05;;;;;;;16.70;12.45;;;7.80;99.90;;;;;;5089446;28;20578;-69
2021/04/17 07:44:34;;;;;;;14.20;11.07;;;7.80;99.90;;;;;;5090176;28;20227;-70
2021/04/17 07:47:01;;;;;;;13.27;11.85;;;8.00;99.90;;;;;;5090187;28;20207;-70
2021/04/17 07:49:28;;;;;;;13.52;12.00;;;8.10;99.90;;;;;;5089503;28;20227;-70
2021/04/17 07:52:00;;;;;;;13.38;11.13;;;8.10;99.90;;;;;;5089421;28;20234;-69
2021/04/17 07:54:27;;;;;;;12.15;10.85;;;7.90;99.90;;;;;;5089801;28;20191;-69
2021/04/17 07:56:54;;;;;;;14.27;11.23;;;8.10;99.90;;;;;;5089976;28;20200;-70
2021/04/17 07:59:23;;;;;;;13.80;9.68;;;8.20;99.90;;;;;;5089455;28;20326;-70
2021/04/17 08:01:50;;;;;;;14.20;10.82;;;8.40;99.90;;;;;;5089252;28;20196;-70
2021/04/17 08:04:24;;;;;;;13.38;10.85;;;8.60;99.00;;;;;;5089418;28;20227;-70
2021/04/17 08:06:51;;;;;;;14.77;10.50;;;8.90;99.90;;;;;;5089619;28;20210;-69
2021/04/17 08:09:20;;;;;;;11.23;10.00;;;9.20;99.20;;;;;;5089382;28;20250;-70
2021/04/17 08:11:50;;;;;;;10.88;9.77;;;9.60;97.70;;;;;;5089095;28;20260;-70
2021/04/17 08:14:19;;;;;;;12.38;9.40;;;9.50;96.30;;;;;;5089204;28;20310;-70
2021/04/17 08:16:46;;;;;;;13.10;9.82;;;9.60;96.30;;;;;;5089644;28;20203;-70
2021/04/17 08:19:13;;;;;;;13.63;10.27;;;9.90;96.30;;;;;;5087119;28;20220;-70
2021/04/17 08:21:39;;;;;;;13.40;11.10;;;10.20;95.00;;;;;;5069186;28;20208;-71
2021/04/17 08:24:08;;;;;;;11.65;10.45;;;10.70;96.20;;;;;;5067949;28;20698;-70
2021/04/17 08:26:34;;;;;;;11.57;9.43;;;11.20;94.80;;;;;;5068192;28;20192;-70
2021/04/17 08:29:02;;;;;;;12.15;10.95;;;11.60;93.50;;;;;;5068119;28;20232;-70
2021/04/17 08:31:31;;;;;;;6.80;6.10;;;11.80;92.80;;;;;;5067744;28;20200;-71
2021/04/17 08:34:15;;;;;;;8.82;7.22;;;11.90;90.60;;;;;;5065517;28;20192;-71
2021/04/17 08:36:45;;;;;;;8.25;6.70;;;11.80;89.90;;;;;;5066054;28;20193;-71
2021/04/17 08:39:44;;;;;;;8.45;6.47;;;11.90;90.50;;;;;;5068140;28;20216;-70
2021/04/17 08:42:15;;;;;;;7.82;6.60;;;11.70;88.40;;;;;;5066397;28;20560;-70
2021/04/17 08:44:43;;;;;;;8.10;6.05;;;11.20;89.70;;;;;;5067889;28;20219;-71
2021/04/17 08:47:12;;;;;;;8.65;6.05;;;11.10;90.00;;;;;;5064902;28;20203;-70
2021/04/17 08:49:39;;;;;;;8.05;6.15;;;11.40;90.40;;;;;;5067880;28;20603;-70
2021/04/17 08:52:19;;;;;;;7.25;6.55;;;11.40;88.80;;;;;;5067042;28;20203;-70
2021/04/17 08:54:47;;;;;;;7.32;6.25;;;11.30;87.10;;;;;;5067721;28;20199;-69
2021/04/17 08:57:14;;;;;;;7.30;6.07;;;11.30;88.20;;;;;;5067763;28;20222;-70
2021/04/17 08:59:42;;;;;;;6.85;6.07;;;10.90;88.40;;;;;;5067656;28;20212;-69
2021/04/17 09:02:11;;;;;;;12.07;7.45;;;10.90;88.80;;;;;;5067031;28;20193;-70
2021/04/17 09:04:59;;;;;;;7.05;5.93;;;11.10;89.90;;;;;;5068247;28;20219;-69
2021/04/17 09:07:27;;;;;;;8.10;5.57;;;11.30;88.50;;;;;;5068273;28;20212;-70
2021/04/17 09:09:53;;;;;;;7.43;5.78;;;11.80;87.00;;;;;;5067705;28;20224;-70
2021/04/17 09:12:24;;;;;;;6.65;5.95;;;12.60;84.70;;;;;;5066944;28;20208;-69
2021/04/17 09:14:56;;;;;;;6.43;5.77;;;13.40;83.70;;;;;;5070442;28;20200;-70
2021/04/17 09:17:47;;;;;;;8.00;7.20;;;13.60;83.30;;;;;;5071458;28;20462;-69
2021/04/17 09:20:38;;;;;;;7.82;7.00;;;13.50;81.30;;;;;;5070799;28;20462;-70
2021/04/17 09:23:04;;;;;;;8.10;6.30;;;13.20;81.60;;;;;;5071827;28;20250;-69
2021/04/17 09:25:40;;;;;;;7.65;5.82;;;13.40;80.40;;;;;;5070402;28;20474;-69
2021/04/17 09:28:06;;;;;;;7.00;6.30;;;13.80;79.00;;;;;;5071013;28;20212;-70
2021/04/17 09:30:33;;;;;;;9.53;7.23;;;14.40;79.10;;;;;;5071051;28;20512;-70
2021/04/17 09:33:00;;;;;;;6.87;5.57;;;14.50;78.30;;;;;;5071350;28;20461;-69
2021/04/17 09:35:30;;;;;;;6.30;5.23;;;14.10;77.90;;;;;;5071430;28;20469;-70
2021/04/17 09:38:15;;;;;;;6.10;5.33;;;13.90;78.30;;;;;;5071393;28;21282;-71
2021/04/17 09:40:44;;;;;;;7.57;6.80;;;13.50;76.40;;;;;;5070293;28;20478;-71
2021/04/17 09:43:22;;;;;;;7.93;5.90;;;12.90;79.00;;;;;;5067911;28;20507;-70
2021/04/17 09:45:50;;;;;;;8.70;5.97;;;13.10;82.00;;;;;;5068361;28;20482;-70
2021/04/17 09:48:19;;;;;;;15.07;11.07;;;14.00;79.80;;;;;;5070545;28;20886;-70
2021/04/17 09:50:46;;;;;;;10.53;7.53;;;14.20;75.80;;;;;;5070178;28;20461;-71
2021/04/17 09:53:17;;;;;;;12.67;7.30;;;14.10;77.40;;;;;;5070593;28;20898;-70
2021/04/17 09:55:54;;;;;;;6.77;5.47;;;13.70;77.50;;;;;;5071947;28;20466;-71
2021/04/17 09:58:22;;;;;;;7.63;5.50;;;13.40;75.60;;;;;;5070544;28;20478;-70
2021/04/17 10:00:49;;;;;;;7.23;5.77;;;13.50;77.20;;;;;;5067747;28;20463;-69
2021/04/17 10:03:26;;;;;;;6.80;6.10;;;13.80;78.90;;;;;;5070654;28;20469;-69
2021/04/17 10:05:53;;;;;;;6.73;6.03;;;14.20;77.00;;;;;;5068314;28;20488;-70
2021/04/17 10:08:26;;;;;;;7.60;5.50;;;14.50;75.60;;;;;;5070344;28;20496;-70
2021/04/17 10:10:53;;;;;;;5.80;5.30;;;14.60;75.20;;;;;;5068048;28;20463;-69
2021/04/17 10:13:37;;;;;;;6.73;6.10;;;14.20;76.30;;;;;;5069991;28;20987;-69
2021/04/17 10:16:04;;;;;;;7.90;6.10;;;13.70;75.20;;;;;;5069675;28;20864;-68
2021/04/17 10:18:32;;;;;;;6.73;6.10;;;13.50;77.20;;;;;;5068181;28;20475;-70
2021/04/17 10:20:58;;;;;;;7.50;6.03;;;13.20;77.30;;;;;;5070812;28;20455;-69
2021/04/17 10:23:24;;;;;;;6.50;5.30;;;12.80;77.70;;;;;;5071549;28;20455;-69
2021/04/17 10:25:50;;;;;;;5.10;4.50;;;12.40;80.00;;;;;;5070196;28;20524;-69
2021/04/17 10:28:18;;;;;;;5.13;4.65;;;12.30;79.40;;;;;;5069942;28;20520;-69
2021/04/17 10:30:48;;;;;;;8.43;5.50;;;12.10;80.70;;;;;;5069408;28;20196;-70
2021/04/17 10:33:19;;;;;;;5.90;5.40;;;12.10;78.80;;;;;;5069822;28;20601;-71
2021/04/17 10:35:48;;;;;;;5.60;4.88;;;12.00;80.10;;;;;;5070051;28;20926;-71
2021/04/17 10:38:25;;;;;;;6.60;5.22;;;11.70;78.50;;;;;;5069137;28;20577;-70
2021/04/17 10:40:51;;;;;;;7.10;5.90;;;11.60;80.60;;;;;;5067339;28;20200;-71
2021/04/17 10:43:19;;;;;;;7.57;5.75;;;11.50;80.00;;;;;;5070490;28;20200;-72
2021/04/17 10:45:48;;;;;;;6.37;5.67;;;11.30;80.70;;;;;;5069416;28;20307;-72
2021/04/17 10:48:18;;;;;;;6.90;5.68;;;11.10;81.00;;;;;;5069211;28;20525;-71
2021/04/17 10:50:54;;;;;;;7.00;5.30;;;10.90;81.20;;;;;;5069659;28;20204;-70
2021/04/17 10:53:24;;;;;;;10.23;5.30;;;10.80;81.80;;;;;;5070550;28;20188;-70
2021/04/17 10:55:51;;;;;;;7.10;5.15;;;10.70;81.40;;;;;;5070298;28;20676;-70
2021/04/17 10:58:24;;;;;;;6.68;5.57;;;11.00;80.70;;;;;;5069963;28;20792;-71
2021/04/17 11:00:55;;;;;;;6.13;5.53;;;11.10;82.50;;;;;;5069568;28;20303;-70
2021/04/17 11:03:21;;;;;;;6.80;6.10;;;11.30;81.70;;;;;;5069366;28;20197;-70
2021/04/17 11:05:48;;;;;;;7.35;5.50;;;11.50;81.00;;;;;;5089907;28;20292;-70
2021/04/17 11:08:21;;;;;;;5.30;4.65;;;11.80;79.90;;;;;;5089609;28;20662;-71
2021/04/17 11:10:48;;;;;;;5.93;5.32;;;12.10;77.10;;;;;;5089633;28;20287;-71
2021/04/17 11:13:31;;;;;;;7.55;5.20;;;12.20;78.50;;;;;;5089573;28;20203;-72
2021/04/17 11:15:58;;;;;;;6.47;5.78;;;12.30;79.60;;;;;;5090198;28;20232;-71
2021/04/17 11:18:24;;;;;;;5.15;4.47;;;12.20;77.60;;;;;;5089641;28;20265;-71
2021/04/17 11:20:53;;;;;;;6.82;4.85;;;12.30;78.80;;;;;;5079586;28;20204;-72
2021/04/17 11:23:42;;;;;;;5.47;5.00;;;12.60;77.90;;;;;;5067821;28;20208;-71
2021/04/17 11:26:12;;;;;;;6.20;5.20;;;13.40;77.40;;;;;;5070637;28;20258;-71
2021/04/17 11:28:40;;;;;;;6.47;4.80;;;14.20;76.90;;;;;;5070939;28;20482;-72
2021/04/17 11:31:07;;;;;;;4.60;4.20;;;14.40;74.00;;;;;;5069131;28;20508;-71
2021/04/17 11:33:34;;;;;;;4.70;4.10;;;14.30;74.50;;;;;;5069340;28;20455;-71
2021/04/17 11:36:00;;;;;;;6.53;4.57;;;14.20;74.50;;;;;;5071658;28;20461;-72
2021/04/17 11:38:27;;;;;;;4.93;4.13;;;14.10;74.60;;;;;;5069600;28;20478;-72
2021/04/17 11:40:54;;;;;;;5.20;4.70;;;14.40;73.50;;;;;;5069707;28;20461;-71
2021/04/17 11:43:21;;;;;;;5.20;4.40;;;14.80;72.80;;;;;;5069917;28;20470;-70
2021/04/17 11:45:47;;;;;;;4.90;4.40;;;15.50;71.60;;;;;;5072949;28;20487;-72
2021/04/17 11:48:13;;;;;;;4.27;3.60;;;15.70;68.20;;;;;;5093282;28;20473;-72
2021/04/17 11:50:40;;;;;;;4.90;3.90;;;15.70;71.00;;;;;;5099403;28;20454;-72
2021/04/17 11:53:06;;;;;;;5.40;4.40;;;15.80;71.30;;;;;;5089866;28;20462;-71
2021/04/17 11:55:33;;;;;;;4.97;4.47;;;16.20;70.30;;;;;;5092225;28;20514;-71
2021/04/17 11:58:01;;;;;;;4.10;3.70;;;17.20;69.60;;;;;;5090947;28;20487;-72
2021/04/17 12:00:27;;;;;;;5.90;4.30;;;18.00;66.70;;;;;;5090470;28;20471;-71
2021/04/17 12:02:53;;;;;;;4.40;4.00;;;18.60;66.30;;;;;;5084654;28;20454;-71
2021/04/17 12:05:19;;;;;;;4.13;3.83;;;19.40;64.70;;;;;;5089486;28;20481;-71
2021/04/17 12:07:46;;;;;;;4.17;3.73;;;20.00;62.90;;;;;;5088973;28;20483;-71
2021/04/17 12:10:13;;;;;;;4.90;3.97;;;20.70;63.70;;;;;;5089533;28;20527;-72
2021/04/17 12:12:39;;;;;;;4.90;4.10;;;20.10;60.90;;;;;;5090245;28;20461;-71
2021/04/17 12:15:08;;;;;;;4.10;3.70;;;19.20;62.30;;;;;;5090464;28;20468;-71
2021/04/17 12:17:34;;;;;;;5.13;4.40;;;18.30;63.90;;;;;;5090587;28;20830;-72
2021/04/17 12:20:00;;;;;;;5.13;4.30;;;17.30;63.40;;;;;;5090228;28;20473;-71
2021/04/17 12:22:26;;;;;;;5.13;3.93;;;16.80;64.50;;;;;;5090085;28;20457;-71
2021/04/17 12:24:53;;;;;;;4.30;3.90;;;16.70;64.30;;;;;;5088379;28;20485;-71
2021/04/17 12:27:19;;;;;;;5.77;4.20;;;16.50;64.70;;;;;;5087103;28;20462;-71
2021/04/17 12:29:46;;;;;;;4.73;3.90;;;16.10;65.00;;;;;;5086624;28;20481;-72
2021/04/17 12:32:13;;;;;;;4.27;3.90;;;15.80;66.40;;;;;;5086569;28;20465;-71
2021/04/17 12:34:40;;;;;;;4.70;4.03;;;15.60;65.90;;;;;;5086902;28;20449;-72
2021/04/17 12:37:06;;;;;;;6.30;3.87;;;15.50;67.00;;;;;;5086293;28;20491;-70
2021/04/17 12:39:33;;;;;;;3.63;3.27;;;15.20;67.80;;;;;;5080777;28;20571;-70
2021/04/17 12:41:59;;;;;;;5.30;3.23;;;14.90;66.80;;;;;;5062931;28;20962;-70
2021/04/17 12:44:25;;;;;;;3.70;3.40;;;14.70;66.10;;;;;;5065473;28;20469;-71
2021/04/17 12:46:52;;;;;;;4.80;4.23;;;14.50;67.50;;;;;;5066290;28;20546;-70
2021/04/17 12:49:19;;;;;;;3.63;3.30;;;14.40;68.40;;;;;;5066420;28;20949;-70
2021/04/17 12:51:45;;;;;;;5.70;3.70;;;14.60;69.10;;;;;;5069456;28;20466;-71
2021/04/17 12:54:11;;;;;;;5.77;3.77;;;15.10;68.80;;;;;;5069393;28;20466;-71
2021/04/17 12:56:38;;;;;;;5.10;3.80;;;15.10;67.00;;;;;;5069268;28;20459;-71
2021/04/17 12:59:04;;;;;;;5.00;3.50;;;15.00;66.10;;;;;;5069455;28;20482;-71
2021/04/17 13:01:30;;;;;;;2.93;2.63;;;14.70;67.20;;;;;;5069108;28;20465;-71
2021/04/17 13:03:56;;;;;;;3.73;3.33;;;14.30;65.60;;;;;;5069641;28;20464;-69
2021/04/17 13:06:24;;;;;;;5.80;3.03;;;14.00;65.70;;;;;;5068022;28;20478;-70
2021/04/17 13:08:50;;;;;;;3.60;3.20;;;13.60;68.00;;;;;;5068337;28;20482;-71
2021/04/17 13:11:16;;;;;;;6.07;3.77;;;13.60;69.80;;;;;;5067483;28;20803;-70
2021/04/17 13:13:42;;;;;;;5.70;3.10;;;13.70;68.80;;;;;;5068817;28;20477;-71
2021/04/17 13:16:09;;;;;;;3.57;3.23;;;13.60;69.80;;;;;;5068146;28;20455;-70